Time;durP1;ratioP1;P1;durP2;ratioP2;P2;SDS_P1;SDS_P2;PMS_P1;PMS_P2;Temp;Humidity;BMP_temperature;BMP_pressure;BME280_temperature;BME280_humidity;BME280_pressure;Samples;Min_cycle;Max_cycle;Signal;HPM_P1;HPM_P2
2021/04/24 00:01:43;;;;;;;6.72;3.40;;;;;;;3.83;66.24;99560.50;5084875;28;20501;-71
2021/04/24 00:04:08;;;;;;;11.18;3.83;;;;;;;3.80;67.11;99565.25;5083591;28;20350;-70
2021/04/24 00:06:33;;;;;;;6.13;3.35;;;;;;;3.94;66.47;99564.84;5091434;28;20031;-71
2021/04/24 00:09:00;;;;;;;9.07;2.78;;;;;;;3.83;66.72;99559.66;5092779;28;20016;-70
2021/04/24 00:11:26;;;;;;;7.22;3.20;;;;;;;3.59;67.28;99536.84;5090498;28;20051;-70
2021/04/24 00:13:52;;;;;;;10.55;3.47;;;;;;;3.62;67.61;99562.47;5089622;28;20087;-70
2021/04/24 00:16:19;;;;;;;8.45;3.25;;;;;;;3.64;67.40;99555.13;5092237;28;20035;-71
2021/04/24 00:18:44;;;;;;;10.68;4.10;;;;;;;3.63;68.30;99556.97;5082885;28;20025;-70
2021/04/24 00:21:09;;;;;;;7.57;3.67;;;;;;;3.62;68.04;99544.56;5088513;28;20028;-71
2021/04/24 00:23:35;;;;;;;10.32;3.83;;;;;;;3.64;68.34;99553.31;5087375;28;20677;-70
2021/04/24 00:26:01;;;;;;;11.02;4.03;;;;;;;3.58;69.04;99543.16;5079307;28;20028;-72
2021/04/24 00:28:26;;;;;;;12.82;4.10;;;;;;;3.52;68.77;99543.72;5091279;28;20020;-71
2021/04/24 00:30:51;;;;;;;8.93;4.10;;;;;;;3.47;68.79;99554.00;5092196;28;20030;-71
2021/04/24 00:33:17;;;;;;;8.23;3.83;;;;;;;3.35;68.96;99539.06;5076636;28;20025;-70
2021/04/24 00:35:42;;;;;;;8.60;4.40;;;;;;;3.42;68.52;99548.22;5079342;28;20032;-71
2021/04/24 00:38:08;;;;;;;7.07;3.72;;;;;;;3.32;68.00;99547.34;5092131;28;20376;-70
2021/04/24 00:40:33;;;;;;;7.60;3.95;;;;;;;3.40;67.84;99547.50;5092294;28;20039;-71
2021/04/24 00:42:58;;;;;;;10.27;4.00;;;;;;;3.26;67.94;99538.06;5080473;28;20020;-71
2021/04/24 00:45:24;;;;;;;10.20;4.10;;;;;;;3.22;68.05;99521.47;5079153;28;20738;-71
2021/04/24 00:47:51;;;;;;;10.57;4.22;;;;;;;3.22;68.44;99507.22;5089355;28;20055;-70
2021/04/24 00:50:25;;;;;;;11.18;4.00;;;;;;;3.42;67.63;99534.84;5088917;28;20036;-70
2021/04/24 00:52:50;;;;;;;6.63;3.50;;;;;;;3.27;67.26;99529.91;5080765;28;20424;-71
2021/04/24 00:55:16;;;;;;;9.60;3.58;;;;;;;3.24;67.19;99524.81;5087450;28;20028;-71
2021/04/24 00:57:41;;;;;;;11.93;3.10;;;;;;;3.11;66.83;99502.00;5088134;28;20053;-71
2021/04/24 01:00:09;;;;;;;8.52;3.15;;;;;;;3.22;67.02;99523.25;5087258;28;20036;-70
2021/04/24 01:02:35;;;;;;;7.30;3.50;;;;;;;3.17;67.57;99523.72;5089482;28;20529;-71
2021/04/24 01:05:01;;;;;;;8.93;4.20;;;;;;;3.07;67.30;99501.47;5091393;28;20024;-72
2021/04/24 01:07:27;;;;;;;13.93;3.80;;;;;;;3.18;67.48;99512.00;5092944;28;20020;-72
2021/04/24 01:09:52;;;;;;;9.13;3.53;;;;;;;3.28;68.36;99510.19;5099321;28;20396;-71
2021/04/24 01:12:18;;;;;;;7.82;3.78;;;;;;;3.19;68.75;99504.84;5108323;28;20036;-72
2021/04/24 01:14:43;;;;;;;6.80;3.63;;;;;;;3.02;68.81;99493.00;5109899;28;20054;-71
2021/04/24 01:17:08;;;;;;;8.23;3.80;;;;;;;3.09;69.21;99496.78;5108647;28;20031;-71
2021/04/24 01:19:34;;;;;;;5.72;3.58;;;;;;;3.03;69.38;99502.69;5126315;28;20047;-71
2021/04/24 01:22:04;;;;;;;7.75;3.83;;;;;;;2.91;69.44;99495.78;5104780;28;20092;-71
2021/04/24 01:24:29;;;;;;;8.70;4.30;;;;;;;2.88;69.97;99491.53;5107780;28;20031;-70
2021/04/24 01:26:55;;;;;;;9.48;3.58;;;;;;;2.84;69.89;99496.34;5101703;28;20044;-71
2021/04/24 01:29:20;;;;;;;8.27;3.25;;;;;;;2.83;69.57;99491.97;5087909;28;20031;-73
2021/04/24 01:31:45;;;;;;;8.75;3.80;;;;;;;2.83;69.39;99505.34;5087603;28;20032;-71
2021/04/24 01:34:10;;;;;;;7.78;3.88;;;;;;;2.69;70.13;99503.03;5075342;28;20668;-71
2021/04/24 01:36:36;;;;;;;8.32;3.70;;;;;;;2.66;69.94;99502.47;5087181;28;20034;-71
2021/04/24 01:39:06;;;;;;;11.35;3.67;;;;;;;2.40;70.64;99478.91;5087701;28;20035;-70
2021/04/24 01:41:33;;;;;;;11.07;4.68;;;;;;;2.53;70.78;99502.72;5090979;28;20027;-71
2021/04/24 01:43:58;;;;;;;9.52;4.15;;;;;;;2.43;71.01;99499.97;5089529;28;20027;-71
2021/04/24 01:46:24;;;;;;;12.15;4.30;;;;;;;2.32;71.33;99486.75;5085991;28;20024;-70
2021/04/24 01:48:51;;;;;;;10.13;4.22;;;;;;;2.32;71.29;99495.59;5092008;28;20038;-71
2021/04/24 01:51:16;;;;;;;10.13;3.35;;;;;;;2.28;71.26;99488.84;5090589;28;20376;-71
2021/04/24 01:53:42;;;;;;;7.07;2.97;;;;;;;2.39;70.93;99490.56;5092648;28;20031;-71
2021/04/24 01:56:10;;;;;;;4.97;2.75;;;;;;;2.54;70.85;99504.38;5091171;28;20031;-70
2021/04/24 01:58:36;;;;;;;9.00;2.80;;;;;;;2.52;70.87;99511.72;5090112;28;20032;-70
2021/04/24 02:01:05;;;;;;;10.68;3.78;;;;;;;2.34;71.02;99509.66;5087983;28;20411;-70
2021/04/24 02:03:30;;;;;;;7.60;3.53;;;;;;;2.54;69.87;99493.69;5072255;28;20444;-70
2021/04/24 02:05:56;;;;;;;12.65;3.72;;;;;;;2.64;69.61;99505.25;5078239;28;20123;-68
2021/04/24 02:08:32;;;;;;;10.43;3.47;;;;;;;2.52;70.55;99503.69;5094560;28;20028;-70
2021/04/24 02:10:57;;;;;;;10.48;3.08;;;;;;;2.51;70.19;99496.66;5088190;28;20122;-71
2021/04/24 02:13:27;;;;;;;9.30;3.00;;;;;;;2.35;70.03;99502.47;5088578;28;20127;-71
2021/04/24 02:15:53;;;;;;;6.60;2.72;;;;;;;2.27;71.03;99486.28;5089878;28;20043;-71
2021/04/24 02:18:19;;;;;;;7.00;3.50;;;;;;;2.22;70.91;99505.38;5091909;28;20032;-69
2021/04/24 02:20:45;;;;;;;6.05;2.70;;;;;;;2.07;71.02;99515.56;5086473;28;20016;-70
2021/04/24 02:23:13;;;;;;;16.00;3.90;;;;;;;1.94;72.00;99512.25;5072176;28;20029;-71
2021/04/24 02:25:39;;;;;;;10.18;3.25;;;;;;;1.98;72.15;99505.66;5087084;28;20043;-71
2021/04/24 02:28:05;;;;;;;5.40;3.30;;;;;;;2.04;72.24;99501.63;5091646;28;20474;-70
2021/04/24 02:30:30;;;;;;;8.30;3.13;;;;;;;1.84;72.28;99512.19;5090428;28;20024;-70
2021/04/24 02:32:56;;;;;;;11.55;3.40;;;;;;;1.81;72.33;99506.25;5091814;28;20434;-71
2021/04/24 02:35:33;;;;;;;8.77;3.30;;;;;;;1.86;72.74;99499.56;5089929;28;20073;-71
2021/04/24 02:37:58;;;;;;;8.63;3.55;;;;;;;1.87;73.19;99500.41;5106981;28;20469;-71
2021/04/24 02:40:24;;;;;;;9.70;3.92;;;;;;;1.84;73.02;99498.00;5091026;28;20077;-70
2021/04/24 02:42:49;;;;;;;9.77;3.25;;;;;;;1.94;72.89;99499.75;5072944;28;20688;-70
2021/04/24 02:45:16;;;;;;;10.82;4.60;;;;;;;1.79;72.55;99492.22;5082106;28;20063;-71
2021/04/24 02:47:42;;;;;;;13.82;4.95;;;;;;;1.66;72.34;99497.75;5076456;28;20055;-70
2021/04/24 02:50:11;;;;;;;16.50;4.63;;;;;;;1.65;72.89;99491.56;5078840;28;20050;-71
2021/04/24 02:52:37;;;;;;;10.98;4.13;;;;;;;1.55;72.75;99493.31;5089054;28;20116;-68
2021/04/24 02:55:05;;;;;;;10.13;4.13;;;;;;;1.60;72.88;99495.56;5089739;28;20474;-68
2021/04/24 02:57:30;;;;;;;10.60;3.63;;;;;;;1.37;72.79;99474.38;5091109;28;20473;-69
2021/04/24 02:59:56;;;;;;;11.43;3.97;;;;;;;1.41;73.26;99481.13;5089956;28;20028;-68
2021/04/24 03:02:21;;;;;;;13.13;3.78;;;;;;;1.49;73.69;99489.34;5089070;28;20374;-69
2021/04/24 03:04:46;;;;;;;7.90;3.90;;;;;;;1.32;73.32;99468.56;5089518;28;20031;-68
2021/04/24 03:07:12;;;;;;;9.98;4.10;;;;;;;1.39;74.19;99485.75;5090983;28;20024;-69
2021/04/24 03:09:38;;;;;;;10.27;3.85;;;;;;;1.25;73.82;99464.72;5090025;28;20560;-69
2021/04/24 03:12:04;;;;;;;9.90;4.25;;;;;;;1.30;73.74;99498.00;5087190;28;20028;-69
2021/04/24 03:14:29;;;;;;;7.57;4.18;;;;;;;1.37;73.89;99492.19;5089934;28;20485;-68
2021/04/24 03:16:54;;;;;;;9.75;3.67;;;;;;;1.35;74.02;99497.63;5090053;28;20032;-69
2021/04/24 03:19:19;;;;;;;12.85;4.40;;;;;;;1.39;74.45;99464.44;5092472;28;20436;-69
2021/04/24 03:21:45;;;;;;;8.27;3.47;;;;;;;1.58;74.44;99489.53;5089853;28;20046;-69
2021/04/24 03:24:10;;;;;;;8.55;4.05;;;;;;;1.65;73.77;99485.34;5092248;28;20027;-69
2021/04/24 03:26:36;;;;;;;8.20;3.20;;;;;;;1.63;73.97;99487.34;5082215;28;20024;-69
2021/04/24 03:29:02;;;;;;;9.40;4.22;;;;;;;1.63;74.00;99487.34;5081759;28;20020;-69
2021/04/24 03:31:28;;;;;;;8.50;4.32;;;;;;;1.53;74.20;99490.75;5088477;28;20023;-69
2021/04/24 03:33:53;;;;;;;10.63;4.97;;;;;;;1.45;74.42;99492.38;5090324;28;20520;-69
2021/04/24 03:36:18;;;;;;;13.73;3.67;;;;;;;1.33;74.82;99488.91;5090833;28;20041;-69
2021/04/24 03:38:44;;;;;;;12.40;4.88;;;;;;;1.24;75.38;99492.34;5090691;28;20142;-69
2021/04/24 03:41:10;;;;;;;13.82;4.38;;;;;;;1.12;75.46;99491.53;5088875;28;20410;-70
2021/04/24 03:43:36;;;;;;;9.57;4.13;;;;;;;1.04;75.72;99496.66;5079180;28;20035;-69
2021/04/24 03:46:02;;;;;;;10.18;4.07;;;;;;;1.06;75.83;99492.88;5091128;28;20039;-69
2021/04/24 03:48:27;;;;;;;18.58;4.68;;;;;;;1.37;75.82;99487.69;5090526;28;20028;-69
2021/04/24 03:50:53;;;;;;;9.25;4.60;;;;;;;1.50;75.42;99483.03;5101508;28;20044;-70
2021/04/24 03:53:18;;;;;;;10.57;4.80;;;;;;;1.42;74.95;99489.97;5086266;28;20032;-69
2021/04/24 03:55:43;;;;;;;9.25;4.63;;;;;;;1.20;74.87;99473.09;5074169;28;20090;-69
2021/04/24 03:58:09;;;;;;;9.93;4.22;;;;;;;1.08;74.30;99493.63;5089154;28;20039;-69
2021/04/24 04:00:34;;;;;;;9.35;3.85;;;;;;;1.00;73.76;99485.41;5089159;28;20031;-69
2021/04/24 04:03:03;;;;;;;8.60;4.13;;;;;;;0.90;74.53;99476.47;5085102;28;20418;-69
2021/04/24 04:05:31;;;;;;;12.73;4.35;;;;;;;0.94;74.73;99485.88;5088352;28;20420;-69
2021/04/24 04:07:58;;;;;;;15.52;4.95;;;;;;;0.79;75.60;99481.84;5087136;28;20737;-68
2021/04/24 04:10:24;;;;;;;14.93;4.13;;;;;;;0.74;75.84;99490.19;5077118;28;20036;-69
2021/04/24 04:12:50;;;;;;;12.73;4.35;;;;;;;0.75;76.42;99485.69;5088154;28;20059;-69
2021/04/24 04:15:19;;;;;;;15.50;3.67;;;;;;;0.71;76.07;99500.22;5088635;28;20056;-69
2021/04/24 04:17:52;;;;;;;11.98;4.13;;;;;;;0.70;76.14;99502.03;5085377;28;20131;-69
2021/04/24 04:20:18;;;;;;;13.13;5.20;;;;;;;0.62;76.66;99500.00;5089671;28;20097;-68
2021/04/24 04:22:43;;;;;;;8.20;4.10;;;;;;;0.55;77.28;99495.28;5087710;28;20169;-74
2021/04/24 04:25:10;;;;;;;10.02;3.83;;;;;;;0.56;76.91;99508.47;5086917;28;20031;-73
2021/04/24 04:27:35;;;;;;;7.82;3.45;;;;;;;0.61;77.17;99495.66;5089229;28;20030;-72
2021/04/24 04:30:00;;;;;;;10.35;3.80;;;;;;;0.78;76.48;99501.44;5090066;28;20027;-72
2021/04/24 04:32:26;;;;;;;12.32;3.80;;;;;;;0.84;76.86;99503.63;5089359;28;20119;-73
2021/04/24 04:34:51;;;;;;;8.68;3.70;;;;;;;0.71;75.78;99489.56;5091310;28;20052;-71
2021/04/24 04:37:16;;;;;;;7.72;3.40;;;;;;;0.86;75.72;99505.19;5091639;28;20484;-74
2021/04/24 04:39:41;;;;;;;6.22;3.35;;;;;;;0.89;75.72;99501.41;5091267;28;20036;-67
2021/04/24 04:42:07;;;;;;;9.07;3.28;;;;;;;1.07;75.40;99507.91;5087438;28;20027;-69
2021/04/24 04:44:33;;;;;;;6.53;3.60;;;;;;;1.13;74.27;99505.69;5089936;28;20073;-70
2021/04/24 04:46:58;;;;;;;7.93;3.15;;;;;;;1.31;74.10;99521.03;5089129;28;20028;-71
2021/04/24 04:49:23;;;;;;;6.15;3.58;;;;;;;1.39;74.03;99512.41;5088468;28;20020;-73
2021/04/24 04:51:49;;;;;;;6.75;3.70;;;;;;;1.39;73.58;99504.41;5087517;28;20576;-73
2021/04/24 04:54:14;;;;;;;10.70;3.72;;;;;;;1.44;73.65;99501.34;5077941;28;20035;-71
2021/04/24 04:56:39;;;;;;;6.80;3.50;;;;;;;1.61;72.38;99516.78;5090396;28;20028;-73
2021/04/24 04:59:05;;;;;;;12.00;3.67;;;;;;;1.72;72.87;99515.88;5089718;28;20047;-71
2021/04/24 05:01:30;;;;;;;10.82;3.78;;;;;;;1.88;72.30;99523.44;5092845;28;20035;-72
2021/04/24 05:03:56;;;;;;;10.68;3.65;;;;;;;2.03;72.52;99526.63;5091038;28;20057;-73
2021/04/24 05:06:21;;;;;;;8.20;3.95;;;;;;;2.07;71.95;99525.38;5084880;28;20054;-73
2021/04/24 05:08:46;;;;;;;10.80;4.03;;;;;;;2.24;70.88;99518.59;5089542;28;20032;-72
2021/04/24 05:11:11;;;;;;;5.63;3.58;;;;;;;2.29;70.40;99511.88;5090756;28;20039;-72
2021/04/24 05:13:37;;;;;;;7.97;3.90;;;;;;;2.41;69.85;99521.50;5089670;28;20088;-72
2021/04/24 05:16:03;;;;;;;16.50;3.97;;;;;;;2.40;69.33;99502.94;5091383;28;20040;-72
2021/04/24 05:18:28;;;;;;;9.70;4.00;;;;;;;2.60;69.37;99519.91;5092234;28;20099;-73
2021/04/24 05:20:53;;;;;;;12.90;3.95;;;;;;;2.89;69.62;99525.31;5094595;28;20038;-71
2021/04/24 05:23:19;;;;;;;7.05;4.07;;;;;;;3.08;67.71;99521.84;5082379;28;20024;-72
2021/04/24 05:25:44;;;;;;;10.95;4.45;;;;;;;3.28;67.07;99526.25;5087319;28;20031;-73
2021/04/24 05:28:10;;;;;;;8.02;4.88;;;;;;;3.53;66.27;99532.03;5095339;28;20028;-72
2021/04/24 05:30:35;;;;;;;8.23;4.38;;;;;;;3.64;66.75;99529.22;5088954;28;20063;-68
2021/04/24 05:33:00;;;;;;;8.50;4.60;;;;;;;3.93;66.75;99531.88;5078981;28;20535;-68
2021/04/24 05:35:26;;;;;;;7.85;4.10;;;;;;;4.24;65.94;99533.50;5081180;28;20052;-68
2021/04/24 05:37:51;;;;;;;7.70;3.83;;;;;;;4.53;64.66;99538.75;5092245;28;20040;-68
2021/04/24 05:40:17;;;;;;;10.55;4.13;;;;;;;4.61;64.09;99533.50;5087789;28;20032;-68
2021/04/24 05:42:43;;;;;;;10.60;4.40;;;;;;;4.54;64.14;99519.88;5092125;28;20032;-67
2021/04/24 05:45:13;;;;;;;10.75;4.47;;;;;;;4.85;64.18;99541.06;5090244;28;20430;-68
2021/04/24 05:47:40;;;;;;;10.38;4.20;;;;;;;5.09;63.09;99537.81;5076640;28;20036;-68
2021/04/24 05:50:08;;;;;;;9.63;4.15;;;;;;;5.26;63.48;99542.34;5083402;28;20034;-67
2021/04/24 05:52:34;;;;;;;11.73;3.92;;;;;;;5.57;62.02;99543.84;5088834;28;20038;-68
2021/04/24 05:55:00;;;;;;;6.75;3.53;;;;;;;5.98;60.64;99534.34;5090072;28;20085;-70
2021/04/24 05:57:26;;;;;;;10.48;3.60;;;;;;;6.52;58.95;99528.81;5087783;28;20035;-69
2021/04/24 05:59:51;;;;;;;9.68;4.72;;;;;;;7.04;59.12;99539.47;5089203;28;20562;-68
2021/04/24 06:02:16;;;;;;;7.80;3.72;;;;;;;7.86;57.00;99534.28;5080748;28;20097;-69
2021/04/24 06:04:41;;;;;;;11.60;4.38;;;;;;;9.35;53.79;99526.47;5087191;28;20053;-68
2021/04/24 06:07:07;;;;;;;9.13;4.32;;;;;;;11.23;47.35;99525.72;5090301;28;20622;-70
2021/04/24 06:09:32;;;;;;;11.10;4.95;;;;;;;12.86;43.10;99520.31;5083727;28;20051;-69
2021/04/24 06:11:57;;;;;;;9.55;4.43;;;;;;;13.38;42.76;99521.59;5077814;28;20039;-69
2021/04/24 06:14:23;;;;;;;8.85;4.47;;;;;;;14.63;40.47;99530.13;5081662;28;20032;-70
2021/04/24 06:16:48;;;;;;;10.90;4.97;;;;;;;15.52;38.51;99511.38;5080247;28;20024;-66
2021/04/24 06:19:13;;;;;;;8.65;4.40;;;;;;;15.60;38.31;99502.94;5077374;28;20028;-67
2021/04/24 06:21:39;;;;;;;6.97;3.92;;;;;;;16.40;37.08;99522.34;5079045;28;20051;-70
2021/04/24 06:24:05;;;;;;;11.77;4.07;;;;;;;17.28;35.22;99515.72;5080521;28;20024;-69
2021/04/24 06:26:30;;;;;;;10.55;4.00;;;;;;;17.30;35.07;99512.78;5077280;28;20117;-70
2021/04/24 06:28:56;;;;;;;8.95;4.05;;;;;;;16.62;35.51;99489.97;5083040;28;20471;-70
2021/04/24 06:31:21;;;;;;;8.30;4.13;;;;;;;17.78;34.21;99514.63;5078779;28;20048;-70
2021/04/24 06:33:46;;;;;;;6.35;3.58;;;;;;;18.14;33.54;99494.53;5078962;28;20030;-69
2021/04/24 06:36:12;;;;;;;9.85;4.30;;;;;;;19.33;31.46;99495.28;5077521;28;20606;-70
2021/04/24 06:38:38;;;;;;;7.18;3.95;;;;;;;19.90;31.28;99493.38;5078026;28;20027;-70
2021/04/24 06:41:03;;;;;;;6.70;4.07;;;;;;;21.52;29.22;99489.72;5079570;28;20050;-70
2021/04/24 06:43:28;;;;;;;8.07;4.32;;;;;;;20.89;29.65;99493.88;5078666;28;20393;-69
2021/04/24 06:45:53;;;;;;;8.45;3.90;;;;;;;20.50;29.81;99474.59;5080869;28;20028;-77
2021/04/24 06:48:19;;;;;;;9.02;4.18;;;;;;;21.50;28.43;99469.88;5091959;28;20054;-77
2021/04/24 06:50:44;;;;;;;7.53;3.72;;;;;;;22.68;27.14;99466.22;5084265;28;20485;-77
2021/04/24 06:53:09;;;;;;;8.57;4.40;;;;;;;23.97;25.78;99456.47;5092053;28;20036;-78
2021/04/24 06:55:35;;;;;;;10.52;4.28;;;;;;;22.98;26.28;99464.75;5082376;28;20062;-77
2021/04/24 06:58:00;;;;;;;8.95;4.20;;;;;;;23.13;26.86;99473.13;5081769;28;20016;-77
2021/04/24 07:00:27;;;;;;;9.77;4.28;;;;;;;23.51;26.66;99472.97;5083567;28;20520;-76
2021/04/24 07:02:52;;;;;;;9.10;4.20;;;;;;;22.90;27.19;99468.81;5073355;28;20028;-76
2021/04/24 07:05:17;;;;;;;10.68;4.30;;;;;;;21.71;28.04;99479.19;5089951;28;20024;-76
2021/04/24 07:07:43;;;;;;;9.10;4.35;;;;;;;22.87;26.95;99480.41;5093897;28;20028;-76
2021/04/24 07:10:10;;;;;;;8.43;4.82;;;;;;;21.38;29.00;99488.47;5101373;28;20370;-75
2021/04/24 07:12:36;;;;;;;7.95;4.50;;;;;;;23.18;27.34;99452.97;5090132;28;20724;-76
2021/04/24 07:15:03;;;;;;;7.53;4.32;;;;;;;23.35;27.28;99481.19;5081146;28;20033;-77
2021/04/24 07:17:28;;;;;;;10.85;4.82;;;;;;;25.26;25.97;99480.09;5079024;28;20020;-76
2021/04/24 07:19:54;;;;;;;9.63;4.97;;;;;;;25.88;25.34;99475.88;5091731;28;20412;-72
2021/04/24 07:22:19;;;;;;;9.35;5.22;;;;;;;24.95;25.33;99471.06;5086241;28;20483;-76
2021/04/24 07:24:46;;;;;;;8.15;4.80;;;;;;;26.90;23.88;99468.59;5088986;28;20028;-70
2021/04/24 07:27:13;;;;;;;9.43;5.78;;;;;;;26.36;24.54;99472.47;5089406;28;20028;-73
2021/04/24 07:29:38;;;;;;;11.10;5.22;;;;;;;27.03;24.01;99475.38;5092881;28;20433;-77
2021/04/24 07:32:04;;;;;;;9.98;4.63;;;;;;;25.09;26.36;99470.16;5093387;28;20024;-79
2021/04/24 07:34:29;;;;;;;8.88;4.85;;;;;;;24.83;26.55;99477.69;5094280;28;20023;-80
2021/04/24 07:36:55;;;;;;;13.15;8.35;;;;;;;25.43;25.50;99476.97;5095878;28;20062;-77
2021/04/24 07:39:20;;;;;;;8.82;5.25;;;;;;;25.66;25.16;99462.41;5089769;28;20026;-78
2021/04/24 07:41:45;;;;;;;9.70;5.35;;;;;;;24.48;26.15;99481.38;5093193;28;20067;-79
2021/04/24 07:44:11;;;;;;;10.38;4.70;;;;;;;24.25;26.61;99458.69;5077171;28;20103;-77
2021/04/24 07:46:36;;;;;;;10.65;4.75;;;;;;;23.06;27.64;99460.66;5086628;28;20028;-79
2021/04/24 07:49:02;;;;;;;12.75;5.55;;;;;;;22.77;27.74;99458.28;5083490;28;20650;-75
2021/04/24 07:51:28;;;;;;;11.45;6.38;;;;;;;25.09;25.54;99467.38;5086061;28;20032;-72
2021/04/24 07:53:53;;;;;;;11.18;5.50;;;;;;;24.55;26.32;99447.88;5079171;28;20149;-84
2021/04/24 07:56:18;;;;;;;10.18;6.20;;;;;;;25.03;25.70;99459.38;5085210;28;20023;-80
2021/04/24 07:58:43;;;;;;;11.20;5.95;;;;;;;25.47;25.51;99456.72;5088575;28;20101;-81
2021/04/24 08:01:09;;;;;;;12.68;6.97;;;;;;;25.75;25.30;99452.38;5086519;28;20392;-78
2021/04/24 08:03:34;;;;;;;23.25;9.63;;;;;;;26.31;24.35;99453.09;5090529;28;20081;-78
2021/04/24 08:05:59;;;;;;;18.13;10.10;;;;;;;25.52;25.75;99456.69;5092295;28;20354;-78
2021/04/24 08:08:24;;;;;;;16.33;8.98;;;;;;;25.28;25.96;99452.94;5091562;28;20095;-79
2021/04/24 08:10:50;;;;;;;12.35;6.00;;;;;;;26.94;24.17;99455.78;5085112;28;20024;-78
2021/04/24 08:13:15;;;;;;;11.23;5.28;;;;;;;24.99;25.76;99447.22;5088585;28;20032;-79
2021/04/24 08:15:41;;;;;;;9.18;5.53;;;;;;;26.31;25.35;99444.75;5080231;28;20024;-78
2021/04/24 08:18:06;;;;;;;10.25;4.70;;;;;;;27.03;25.43;99455.94;5093201;28;20035;-79
2021/04/24 08:20:31;;;;;;;10.48;4.75;;;;;;;27.65;24.25;99456.00;5083177;28;20074;-78
2021/04/24 08:22:57;;;;;;;10.75;5.10;;;;;;;26.86;24.30;99451.69;5088148;28;20023;-77
2021/04/24 08:25:22;;;;;;;8.38;4.70;;;;;;;27.00;24.15;99457.38;5095500;28;20024;-81
2021/04/24 08:27:47;;;;;;;8.43;4.60;;;;;;;27.88;24.13;99443.16;5094375;28;20083;-79
2021/04/24 08:30:15;;;;;;;6.30;4.20;;;;;;;28.12;23.33;99446.66;5094257;28;20030;-79
2021/04/24 08:32:41;;;;;;;7.60;4.28;;;;;;;28.97;23.20;99433.38;5085019;28;20043;-78
2021/04/24 08:35:08;;;;;;;6.60;4.05;;;;;;;29.54;22.49;99433.03;5074275;28;20436;-76
2021/04/24 08:37:34;;;;;;;7.32;4.28;;;;;;;28.84;21.96;99435.03;5076953;28;20029;-78
2021/04/24 08:40:00;;;;;;;7.75;4.50;;;;;;;27.65;23.35;99439.31;5089376;28;20478;-74
2021/04/24 08:42:29;;;;;;;9.15;4.18;;;;;;;28.84;22.56;99420.28;5081515;28;20158;-71
2021/04/24 08:44:54;;;;;;;10.05;6.50;;;;;;;28.84;21.78;99442.56;5087841;28;20034;-73
2021/04/24 08:47:21;;;;;;;11.60;6.13;;;;;;;27.91;22.46;99431.44;5083789;28;20028;-76
2021/04/24 08:49:47;;;;;;;10.32;5.22;;;;;;;27.84;22.28;99425.41;5089711;28;20282;-75
2021/04/24 08:52:13;;;;;;;8.25;5.03;;;;;;;27.87;22.21;99431.19;5085376;28;20048;-76
2021/04/24 08:54:39;;;;;;;7.85;4.43;;;;;;;28.49;22.72;99431.00;5091186;28;20550;-78
2021/04/24 08:57:04;;;;;;;9.82;4.47;;;;;;;28.86;21.26;99418.03;5085432;28;20020;-79
2021/04/24 08:59:29;;;;;;;9.15;4.53;;;;;;;30.22;20.66;99421.94;5091786;28;20059;-77
2021/04/24 09:01:55;;;;;;;7.93;4.65;;;;;;;31.15;20.28;99435.03;5090643;28;20089;-78
2021/04/24 09:04:20;;;;;;;6.60;4.00;;;;;;;30.55;19.82;99430.88;5090287;28;20485;-82
2021/04/24 09:06:45;;;;;;;6.68;4.45;;;;;;;31.14;19.55;99428.63;5090766;28;20028;-77
2021/04/24 09:09:12;;;;;;;6.15;4.57;;;;;;;29.17;20.50;99423.81;5091409;28;20042;-79
2021/04/24 09:11:43;;;;;;;9.63;4.60;;;;;;;27.91;21.63;99420.31;5092660;28;20043;-78
2021/04/24 09:14:11;;;;;;;10.38;4.13;;;;;;;27.86;21.56;99415.66;5092564;28;20032;-73
2021/04/24 09:16:39;;;;;;;9.85;4.85;;;;;;;26.85;22.46;99427.00;5085576;28;20651;-76
2021/04/24 09:19:24;;;;;;;8.60;4.68;;;;;;;29.37;20.34;99391.03;5077442;28;20077;-76
2021/04/24 09:22:12;;;;;;;10.40;4.75;;;;;;;29.33;20.31;99417.91;5086499;28;20034;-71
2021/04/24 09:24:38;;;;;;;8.27;4.80;;;;;;;29.99;19.48;99408.00;5088106;28;20486;-71
2021/04/24 09:27:04;;;;;;;6.70;4.30;;;;;;;30.54;19.26;99406.88;5083089;28;20077;-72
2021/04/24 09:29:29;;;;;;;6.88;4.65;;;;;;;29.78;19.72;99404.06;5078250;28;20036;-72
2021/04/24 09:32:18;;;;;;;10.17;4.33;;;;;;;29.94;19.55;99402.53;5085172;28;20039;-72
2021/04/24 09:34:49;;;;;;;10.38;4.65;;;;;;;29.78;20.51;99404.88;5077011;28;20329;-72
2021/04/24 09:37:16;;;;;;;8.77;4.28;;;;;;;31.71;19.10;99393.38;5085257;28;20036;-72
2021/04/24 09:39:47;;;;;;;9.95;4.50;;;;;;;31.39;19.14;99396.31;5074954;28;20036;-73
2021/04/24 09:42:31;;;;;;;6.75;4.43;;;;;;;31.50;19.84;99380.03;5080245;28;20036;-72
2021/04/24 09:44:56;;;;;;;10.07;4.82;;;;;;;31.59;19.07;99388.44;5071424;28;20126;-72
2021/04/24 09:47:22;;;;;;;10.48;4.80;;;;;;;30.20;20.11;99374.78;5080247;28;20130;-72
2021/04/24 09:49:47;;;;;;;8.45;4.70;;;;;;;29.54;19.54;99384.81;5070356;28;20651;-72
2021/04/24 09:52:21;;;;;;;11.13;5.53;;;;;;;28.79;20.89;99384.19;5087378;28;20464;-72
2021/04/24 09:54:47;;;;;;;12.55;5.30;;;;;;;29.14;19.82;99379.88;5087256;28;20304;-71
2021/04/24 09:57:21;;;;;;;7.35;5.25;;;;;;;29.22;20.46;99381.09;5076922;28;20115;-71
2021/04/24 09:59:54;;;;;;;8.27;5.03;;;;;;;28.31;21.37;99373.41;5086853;28;20043;-72
2021/04/24 10:02:30;;;;;;;9.05;4.45;;;;;;;30.43;20.83;99369.22;5091263;28;20023;-72
2021/04/24 10:05:05;;;;;;;9.05;4.75;;;;;;;32.17;18.72;99359.06;5090522;28;20035;-72
2021/04/24 10:07:35;;;;;;;12.50;5.50;;;;;;;30.58;19.80;99366.81;5085470;28;20371;-71
2021/04/24 10:10:01;;;;;;;10.38;5.20;;;;;;;30.31;20.37;99361.41;5077166;28;20085;-73
2021/04/24 10:12:26;;;;;;;6.90;4.75;;;;;;;30.75;19.11;99363.25;5091854;28;20517;-72
2021/04/24 10:14:52;;;;;;;8.48;4.72;;;;;;;29.80;20.12;99351.59;5091550;28;20058;-74
2021/04/24 10:17:19;;;;;;;8.57;4.78;;;;;;;28.40;20.57;99344.59;5087924;28;20039;-72
2021/04/24 10:19:46;;;;;;;9.55;5.13;;;;;;;29.27;21.42;99348.34;5084316;28;20524;-72
2021/04/24 10:22:15;;;;;;;13.25;4.90;;;;;;;30.45;20.52;99341.78;5081141;28;20032;-72
2021/04/24 10:24:40;;;;;;;;;;;;;;;29.64;19.69;99346.38;5091064;28;20035;-71
2021/04/24 10:27:07;;;;;;;7.95;5.18;;;;;;;27.85;19.29;99349.19;5090053;28;19916;-72
2021/04/24 10:29:33;;;;;;;8.00;5.57;;;;;;;28.24;19.57;99343.19;5091896;28;20507;-71
2021/04/24 10:31:59;;;;;;;12.43;5.57;;;;;;;25.68;20.37;99348.50;5090089;28;20059;-72
2021/04/24 10:34:24;;;;;;;8.98;5.30;;;;;;;26.55;20.48;99347.69;5089979;28;20031;-72
2021/04/24 10:36:51;;;;;;;8.73;4.93;;;;;;;28.77;21.48;99333.56;5090768;28;20035;-72
2021/04/24 10:39:19;;;;;;;10.52;5.63;;;;;;;26.68;21.51;99352.53;5087034;28;20023;-72
2021/04/24 10:41:55;;;;;;;7.63;5.13;;;;;;;28.66;21.28;99343.25;5090624;28;20709;-71
2021/04/24 10:44:21;;;;;;;9.73;5.15;;;;;;;28.94;20.89;99333.72;5091259;28;20363;-72
2021/04/24 10:46:55;;;;;;;10.02;4.75;;;;;;;30.14;20.44;99329.47;5081676;28;20028;-71
2021/04/24 10:49:33;;;;;;;10.75;5.35;;;;;;;29.99;19.03;99332.66;5089096;28;20031;-72
2021/04/24 10:52:19;;;;;;;7.55;4.82;;;;;;;29.87;20.11;99333.25;5090369;28;20032;-71
2021/04/24 10:55:11;;;;;;;8.35;4.88;;;;;;;29.76;20.10;99323.47;5087196;28;20427;-72
2021/04/24 10:57:37;;;;;;;7.75;4.88;;;;;;;30.23;20.31;99332.31;5065509;28;20405;-72
2021/04/24 11:00:04;;;;;;;8.13;4.75;;;;;;;30.43;19.57;99325.34;5086731;28;20023;-72
2021/04/24 11:02:39;;;;;;;9.70;5.10;;;;;;;29.18;19.39;99327.94;5076629;28;20036;-71
2021/04/24 11:05:22;;;;;;;9.15;5.55;;;;;;;28.69;19.79;99318.41;5089346;28;20073;-72
2021/04/24 11:07:47;;;;;;;10.63;6.40;;;;;;;28.14;20.51;99316.41;5090592;28;20032;-72
2021/04/24 11:10:17;;;;;;;10.98;6.00;;;;;;;30.55;18.92;99317.19;5088253;28;20031;-71
2021/04/24 11:12:48;;;;;;;8.65;4.65;;;;;;;29.20;20.62;99311.72;5072170;28;20123;-71
2021/04/24 11:15:19;;;;;;;8.05;5.18;;;;;;;30.14;20.28;99311.91;5085701;28;20024;-72
2021/04/24 11:17:46;;;;;;;10.77;5.47;;;;;;;30.82;19.54;99314.50;5090419;28;20034;-72
2021/04/24 11:20:12;;;;;;;6.97;5.57;;;;;;;30.45;18.62;99305.50;5085332;28;20476;-72
2021/04/24 11:22:41;;;;;;;8.32;4.70;;;;;;;30.82;19.44;99303.31;5086924;28;20036;-72
2021/04/24 11:25:20;;;;;;;10.65;5.20;;;;;;;30.18;18.90;99301.72;5089558;28;20028;-71
2021/04/24 11:28:02;;;;;;;8.30;5.00;;;;;;;29.73;19.44;99301.00;5089574;28;20020;-72
2021/04/24 11:30:57;;;;;;;7.38;5.05;;;;;;;30.17;20.01;99294.50;5070147;28;20053;-71
2021/04/24 11:33:39;;;;;;;10.68;5.50;;;;;;;30.25;18.53;99290.13;5084880;28;20439;-71